createdAt,value
2019-03-31T00:02:12.072Z,25.40
2019-03-31T00:04:40.461Z,27.00
2019-03-31T00:07:08.851Z,28.23
2019-03-31T00:09:37.255Z,30.43
2019-03-31T00:12:05.704Z,31.97
2019-03-31T00:14:34.090Z,31.90
2019-03-31T00:17:02.495Z,32.30
2019-03-31T00:19:30.871Z,30.77
2019-03-31T00:21:59.257Z,30.50
2019-03-31T00:24:27.651Z,31.00
2019-03-31T00:26:56.031Z,31.43
2019-03-31T00:29:24.412Z,31.30
2019-03-31T00:31:52.817Z,30.17
2019-03-31T00:34:21.203Z,31.50
2019-03-31T00:36:49.584Z,31.80
2019-03-31T00:39:17.975Z,31.87
2019-03-31T00:41:46.361Z,31.70
2019-03-31T00:44:14.744Z,31.27
2019-03-31T00:46:43.135Z,32.77
2019-03-31T00:49:11.517Z,33.57
2019-03-31T00:51:39.899Z,32.33
2019-03-31T00:54:08.296Z,31.93
2019-03-31T00:56:36.680Z,33.33
2019-03-31T00:59:05.056Z,32.50
2019-03-31T01:01:44.784Z,32.47
2019-03-31T01:04:13.228Z,32.40
2019-03-31T01:06:41.704Z,28.70
2019-03-31T01:09:22.366Z,32.27
2019-03-31T01:11:51.099Z,34.50
2019-03-31T01:14:19.736Z,30.43
2019-03-31T01:16:48.288Z,37.40
2019-03-31T01:19:17.818Z,36.03
2019-03-31T01:21:46.197Z,35.17
2019-03-31T01:24:14.715Z,34.57
2019-03-31T01:26:43.192Z,33.17
2019-03-31T01:29:12.680Z,33.63
2019-03-31T01:31:50.123Z,35.27
2019-03-31T01:34:11.383Z,35.00
2019-03-31T01:36:39.772Z,28.70
2019-03-31T01:39:09.388Z,30.30
2019-03-31T01:41:37.843Z,32.23
2019-03-31T01:44:06.232Z,33.90
2019-03-31T01:46:34.615Z,36.53
2019-03-31T01:49:03.079Z,37.80
2019-03-31T01:51:31.451Z,37.20
2019-03-31T01:53:59.831Z,38.10
2019-03-31T01:56:28.220Z,34.87
2019-03-31T01:58:56.595Z,37.80
2019-03-31T02:01:25.055Z,36.00
2019-03-31T02:03:53.603Z,37.03
2019-03-31T02:06:22.010Z,42.10
2019-03-31T02:08:50.387Z,41.10
2019-03-31T02:11:18.767Z,41.70
2019-03-31T02:13:47.160Z,43.53
2019-03-31T02:16:15.543Z,42.60
2019-03-31T02:18:43.927Z,39.67
2019-03-31T02:21:12.313Z,38.43
2019-03-31T02:23:40.692Z,41.47
2019-03-31T02:26:09.081Z,45.63
2019-03-31T02:28:37.472Z,49.27
2019-03-31T02:31:05.864Z,47.77
2019-03-31T02:33:34.244Z,46.67
2019-03-31T02:36:02.641Z,47.33
2019-03-31T02:38:31.039Z,48.60
2019-03-31T02:40:59.597Z,52.93
2019-03-31T02:43:27.990Z,54.13
2019-03-31T02:45:56.386Z,57.53
2019-03-31T02:48:24.773Z,50.57
2019-03-31T02:50:53.156Z,52.37
2019-03-31T02:53:22.138Z,46.77
2019-03-31T02:55:50.945Z,48.13
2019-03-31T02:58:19.521Z,50.57
2019-03-31T03:00:48.154Z,61.70
2019-03-31T03:03:17.215Z,61.83
2019-03-31T03:05:46.380Z,63.97
2019-03-31T03:08:16.658Z,68.50
2019-03-31T03:10:45.223Z,65.97
2019-03-31T03:13:14.652Z,69.30
2019-03-31T03:15:51.617Z,67.83
2019-03-31T03:18:19.993Z,69.23
2019-03-31T03:20:48.381Z,73.03
2019-03-31T03:23:16.781Z,77.27
2019-03-31T03:25:55.647Z,79.63
2019-03-31T03:28:15.264Z,79.03
2019-03-31T03:30:43.914Z,80.57
2019-03-31T03:33:16.390Z,83.57
2019-03-31T03:35:42.565Z,83.17
2019-03-31T03:38:10.940Z,86.00
2019-03-31T03:40:39.328Z,87.80
2019-03-31T03:43:07.731Z,81.97
2019-03-31T03:45:36.193Z,80.03
2019-03-31T03:48:04.643Z,88.30
2019-03-31T03:50:33.045Z,85.17
2019-03-31T03:53:01.437Z,86.47
2019-03-31T03:55:30.053Z,90.40
2019-03-31T03:57:58.449Z,84.13
2019-03-31T04:00:26.847Z,83.47
2019-03-31T04:02:56.079Z,87.03
2019-03-31T04:05:24.463Z,88.60
2019-03-31T04:07:52.848Z,91.03
2019-03-31T04:10:43.888Z,92.50
2019-03-31T04:13:12.446Z,92.10
2019-03-31T04:15:40.920Z,96.17
2019-03-31T04:18:09.584Z,95.73
2019-03-31T04:20:39.544Z,94.13
2019-03-31T04:23:08.081Z,96.60
2019-03-31T04:25:36.548Z,93.87
2019-03-31T04:28:04.936Z,92.67
2019-03-31T04:30:33.312Z,92.77
2019-03-31T04:33:01.717Z,93.60
2019-03-31T04:35:30.327Z,90.10
2019-03-31T04:37:58.724Z,94.67
2019-03-31T04:40:27.119Z,87.83
2019-03-31T04:42:55.505Z,79.97
2019-03-31T04:45:23.880Z,89.73
2019-03-31T04:47:52.261Z,88.60
2019-03-31T04:50:20.663Z,88.37
2019-03-31T04:52:49.046Z,91.90
2019-03-31T04:55:17.428Z,85.33
2019-03-31T04:57:45.815Z,93.50
2019-03-31T05:00:14.265Z,85.97
2019-03-31T05:02:42.660Z,101.50
2019-03-31T05:05:11.047Z,105.27
2019-03-31T05:07:39.433Z,83.37
2019-03-31T05:10:07.961Z,88.10
2019-03-31T05:12:36.365Z,93.67
2019-03-31T05:15:06.202Z,103.07
2019-03-31T05:17:35.887Z,101.10
2019-03-31T05:20:05.712Z,105.10
2019-03-31T05:22:34.092Z,106.00
2019-03-31T05:25:02.663Z,110.00
2019-03-31T05:27:31.079Z,112.43
2019-03-31T05:29:59.447Z,121.10
2019-03-31T05:32:27.844Z,104.47
2019-03-31T05:34:56.232Z,96.53
2019-03-31T05:37:24.644Z,95.13
2019-03-31T05:39:53.027Z,97.57
2019-03-31T05:42:21.409Z,101.20
2019-03-31T05:44:49.807Z,105.47
2019-03-31T05:47:18.195Z,115.07
2019-03-31T05:49:46.578Z,113.70
2019-03-31T05:52:14.974Z,109.03
2019-03-31T05:54:43.368Z,116.47
2019-03-31T05:57:11.751Z,122.20
2019-03-31T05:59:40.156Z,121.53
2019-03-31T06:02:08.535Z,110.47
2019-03-31T06:04:36.932Z,106.23
2019-03-31T06:07:05.316Z,102.93
2019-03-31T06:09:33.707Z,101.60
2019-03-31T06:12:02.100Z,113.43
2019-03-31T06:14:30.483Z,113.50
2019-03-31T06:16:58.887Z,111.53
2019-03-31T06:19:27.280Z,103.30
2019-03-31T06:21:55.668Z,100.90
2019-03-31T06:24:24.057Z,110.50
2019-03-31T06:26:52.459Z,118.60
2019-03-31T06:29:20.851Z,107.93
2019-03-31T06:31:49.235Z,111.30
2019-03-31T06:34:17.631Z,96.90
2019-03-31T06:36:46.020Z,89.17
2019-03-31T06:39:14.405Z,84.07
2019-03-31T06:41:42.795Z,83.57
2019-03-31T06:44:11.180Z,83.47
2019-03-31T06:46:39.559Z,84.60
2019-03-31T06:49:07.956Z,81.23
2019-03-31T06:51:36.347Z,80.90
2019-03-31T06:54:04.748Z,81.27
2019-03-31T06:56:33.131Z,76.17
2019-03-31T06:59:01.524Z,77.47
2019-03-31T07:01:29.902Z,75.00
2019-03-31T07:03:58.300Z,70.00
2019-03-31T07:06:26.687Z,71.97
2019-03-31T07:08:55.076Z,68.97
2019-03-31T07:11:23.484Z,65.17
2019-03-31T07:13:51.877Z,63.67
2019-03-31T07:16:20.263Z,62.67
2019-03-31T07:18:48.649Z,63.00
2019-03-31T07:21:17.039Z,61.30
2019-03-31T07:23:45.428Z,60.03
2019-03-31T07:26:13.824Z,55.50
2019-03-31T07:28:42.221Z,56.53
2019-03-31T07:31:10.595Z,52.67
2019-03-31T07:33:39.229Z,52.27
2019-03-31T07:36:07.611Z,48.47
2019-03-31T07:38:39.170Z,48.90
2019-03-31T07:41:12.488Z,43.13
2019-03-31T07:43:36.232Z,43.50
2019-03-31T07:46:04.608Z,41.67
2019-03-31T07:48:32.999Z,42.37
2019-03-31T07:51:01.391Z,42.20
2019-03-31T07:53:29.846Z,39.03
2019-03-31T07:55:58.248Z,38.23
2019-03-31T07:58:26.647Z,38.13
2019-03-31T08:00:55.013Z,36.37
2019-03-31T08:03:23.411Z,36.70
2019-03-31T08:05:51.801Z,34.63
2019-03-31T08:08:20.191Z,35.90
2019-03-31T08:10:48.587Z,36.70
2019-03-31T08:13:16.975Z,35.33
2019-03-31T08:15:45.367Z,34.63
2019-03-31T08:18:13.752Z,33.73
2019-03-31T08:20:42.128Z,33.43
2019-03-31T08:23:10.514Z,35.03
2019-03-31T08:25:38.907Z,34.47
2019-03-31T08:28:07.292Z,37.03
2019-03-31T08:30:35.676Z,36.53
2019-03-31T08:33:04.074Z,35.47
2019-03-31T08:35:46.269Z,37.97
2019-03-31T08:38:02.560Z,35.77
2019-03-31T08:40:30.952Z,39.07
2019-03-31T08:42:59.358Z,34.17
2019-03-31T08:45:30.406Z,38.97
2019-03-31T08:47:57.859Z,33.23
2019-03-31T08:50:26.243Z,35.10
2019-03-31T08:52:54.640Z,34.07
2019-03-31T08:55:23.024Z,33.00
2019-03-31T08:57:51.423Z,29.47
2019-03-31T09:00:24.368Z,31.97
2019-03-31T09:02:52.755Z,30.30
2019-03-31T09:05:21.146Z,29.23
2019-03-31T09:07:49.781Z,30.63
2019-03-31T09:10:18.239Z,31.47
2019-03-31T09:12:48.494Z,29.50
2019-03-31T09:15:16.815Z,30.03
2019-03-31T09:17:45.196Z,29.63
2019-03-31T09:20:14.624Z,29.70
2019-03-31T09:22:43.025Z,29.03
2019-03-31T09:25:13.011Z,29.93
2019-03-31T09:27:41.401Z,29.10
2019-03-31T09:30:11.519Z,28.80
2019-03-31T09:32:39.909Z,28.83
2019-03-31T09:35:09.141Z,27.80
2019-03-31T09:37:37.537Z,28.90
2019-03-31T09:40:10.680Z,29.37
2019-03-31T09:42:39.088Z,30.93
2019-03-31T09:45:09.312Z,29.80
2019-03-31T09:47:38.748Z,29.37
2019-03-31T09:50:09.571Z,29.93
2019-03-31T09:52:37.979Z,28.33
2019-03-31T09:55:07.901Z,27.83
2019-03-31T09:57:36.289Z,30.43
2019-03-31T10:00:10.491Z,30.40
2019-03-31T10:02:38.943Z,28.50
2019-03-31T10:05:07.879Z,29.40
2019-03-31T10:07:37.137Z,28.67
2019-03-31T10:10:08.596Z,28.67
2019-03-31T10:12:36.996Z,27.87
2019-03-31T10:15:07.315Z,28.23
2019-03-31T10:17:35.707Z,28.73
2019-03-31T10:20:05.437Z,28.23
2019-03-31T10:22:33.831Z,27.57
2019-03-31T10:25:02.280Z,29.20
2019-03-31T10:27:30.660Z,27.77
2019-03-31T10:29:59.295Z,27.40
2019-03-31T10:32:27.676Z,27.87
2019-03-31T10:34:56.070Z,26.63
2019-03-31T10:37:24.459Z,26.10
2019-03-31T10:39:52.860Z,26.03
2019-03-31T10:42:21.240Z,23.57
2019-03-31T10:44:49.628Z,26.40
2019-03-31T10:47:18.011Z,24.90
2019-03-31T10:49:46.401Z,25.77
2019-03-31T10:52:14.860Z,24.77
2019-03-31T10:54:43.244Z,23.80
2019-03-31T10:57:11.640Z,20.40
2019-03-31T10:59:40.040Z,19.43
2019-03-31T11:02:08.423Z,17.80
2019-03-31T11:04:36.804Z,18.03
2019-03-31T11:07:05.200Z,17.53
2019-03-31T11:09:34.504Z,16.37
2019-03-31T11:12:03.049Z,16.00
2019-03-31T11:14:31.460Z,16.97
2019-03-31T11:16:59.867Z,16.67
2019-03-31T11:19:28.259Z,16.10
2019-03-31T11:21:58.288Z,15.97
2019-03-31T11:24:26.686Z,16.43
2019-03-31T11:26:55.067Z,16.83
2019-03-31T11:29:23.452Z,15.77
2019-03-31T11:31:51.848Z,16.20
2019-03-31T11:34:20.235Z,17.57
2019-03-31T11:36:48.633Z,16.63
2019-03-31T11:39:17.026Z,17.27
2019-03-31T11:41:45.407Z,16.80
2019-03-31T11:44:13.810Z,16.57
2019-03-31T11:46:42.189Z,16.97
2019-03-31T11:49:10.587Z,17.47
2019-03-31T11:51:38.972Z,18.07
2019-03-31T11:54:07.347Z,17.03
2019-03-31T11:56:35.743Z,16.40
2019-03-31T11:59:04.136Z,17.07
2019-03-31T12:01:32.528Z,17.10
2019-03-31T12:04:00.917Z,17.53
2019-03-31T12:06:29.299Z,17.70
2019-03-31T12:08:57.700Z,17.50
2019-03-31T12:11:26.081Z,17.10
2019-03-31T12:13:54.477Z,18.23
2019-03-31T12:16:22.863Z,16.47
2019-03-31T12:18:51.244Z,18.60
2019-03-31T12:21:19.640Z,18.00
2019-03-31T12:23:48.024Z,18.50
2019-03-31T12:26:16.399Z,17.53
2019-03-31T12:28:44.791Z,17.90
2019-03-31T12:31:13.196Z,17.50
2019-03-31T12:33:41.586Z,17.77
2019-03-31T12:36:09.973Z,16.93
2019-03-31T12:38:38.365Z,18.10
2019-03-31T12:41:06.758Z,16.93
2019-03-31T12:43:35.215Z,17.00
2019-03-31T12:46:03.615Z,17.23
2019-03-31T12:48:31.999Z,16.20
2019-03-31T12:51:00.390Z,17.00
2019-03-31T12:53:28.782Z,16.73
2019-03-31T12:56:00.331Z,16.43
2019-03-31T12:58:27.292Z,17.30
2019-03-31T13:00:55.684Z,16.97
2019-03-31T13:03:24.078Z,18.13
2019-03-31T13:05:52.455Z,17.93
2019-03-31T13:08:20.852Z,16.23
2019-03-31T13:10:49.240Z,16.37
2019-03-31T13:13:17.635Z,16.27
2019-03-31T13:15:46.016Z,16.93
2019-03-31T13:18:14.653Z,15.83
2019-03-31T13:20:43.039Z,16.23
2019-03-31T13:23:11.422Z,15.23
2019-03-31T13:25:39.814Z,15.48
2019-03-31T13:28:08.209Z,17.00
2019-03-31T13:30:36.591Z,14.95
2019-03-31T13:33:05.060Z,15.58
2019-03-31T13:35:33.470Z,15.68
2019-03-31T13:38:11.000Z,15.87
2019-03-31T13:40:31.967Z,14.73
2019-03-31T13:43:00.378Z,15.70
2019-03-31T13:45:28.759Z,15.03
2019-03-31T13:47:58.853Z,15.33
2019-03-31T13:50:27.319Z,14.07
2019-03-31T13:52:55.716Z,14.80
2019-03-31T13:55:24.100Z,14.40
2019-03-31T13:57:53.488Z,15.00
2019-03-31T14:00:40.212Z,16.30
2019-03-31T14:03:08.992Z,16.23
2019-03-31T14:05:37.372Z,14.90
2019-03-31T14:08:05.756Z,16.10
2019-03-31T14:10:34.232Z,15.63
2019-03-31T14:13:02.776Z,14.93
2019-03-31T14:15:31.159Z,16.07
2019-03-31T14:17:59.796Z,15.23
2019-03-31T14:20:28.219Z,15.03
2019-03-31T14:22:56.603Z,14.18
2019-03-31T14:25:25.243Z,14.40
2019-03-31T14:27:53.636Z,14.33
2019-03-31T14:30:22.263Z,14.10
2019-03-31T14:32:50.648Z,13.37
2019-03-31T14:35:19.049Z,13.00
2019-03-31T14:37:47.431Z,12.80
2019-03-31T14:40:15.906Z,11.27
2019-03-31T14:42:44.288Z,11.80
2019-03-31T14:45:15.751Z,11.43
2019-03-31T14:47:44.370Z,11.43
2019-03-31T14:50:15.854Z,10.67
2019-03-31T14:52:44.227Z,10.20
2019-03-31T14:55:12.629Z,10.83
2019-03-31T14:57:41.035Z,10.93
2019-03-31T15:00:15.064Z,10.67
2019-03-31T15:02:39.585Z,10.70
2019-03-31T15:05:08.045Z,11.03
2019-03-31T15:07:36.442Z,11.03
2019-03-31T15:10:05.876Z,9.43
2019-03-31T15:12:34.252Z,9.73
2019-03-31T15:15:02.643Z,9.77
2019-03-31T15:17:31.019Z,8.87
2019-03-31T15:19:59.399Z,9.50
2019-03-31T15:22:27.795Z,9.53
2019-03-31T15:24:56.188Z,9.33
2019-03-31T15:27:24.642Z,9.47
2019-03-31T15:29:53.031Z,10.60
2019-03-31T15:32:21.411Z,9.30
2019-03-31T15:34:49.808Z,8.60
2019-03-31T15:37:18.187Z,9.77
2019-03-31T15:39:46.569Z,9.20
2019-03-31T15:42:14.960Z,9.40
2019-03-31T15:44:43.335Z,9.43
2019-03-31T15:47:11.716Z,10.97
2019-03-31T15:49:40.106Z,10.37
2019-03-31T15:52:08.967Z,10.80
2019-03-31T15:54:37.461Z,11.50
2019-03-31T15:57:05.849Z,12.17
2019-03-31T15:59:34.240Z,10.83
2019-03-31T16:02:02.624Z,11.40
2019-03-31T16:04:31.020Z,12.20
2019-03-31T16:06:59.400Z,10.77
2019-03-31T16:09:27.785Z,13.00
2019-03-31T16:11:56.179Z,11.97
2019-03-31T16:14:24.567Z,11.90
2019-03-31T16:16:52.964Z,11.87
2019-03-31T16:19:21.400Z,11.40
2019-03-31T16:21:49.808Z,10.83
2019-03-31T16:24:19.843Z,11.13
2019-03-31T16:26:48.230Z,10.17
2019-03-31T16:29:16.616Z,9.63
2019-03-31T16:31:44.997Z,9.80
2019-03-31T16:34:13.385Z,10.00
2019-03-31T16:36:41.776Z,10.13
2019-03-31T16:39:10.156Z,9.63
2019-03-31T16:41:38.539Z,10.33
2019-03-31T16:44:06.935Z,10.03
2019-03-31T16:46:35.323Z,11.10
2019-03-31T16:49:03.719Z,10.20
2019-03-31T16:51:32.120Z,9.73
2019-03-31T16:54:00.492Z,9.47
2019-03-31T16:56:28.887Z,10.00
2019-03-31T16:58:57.275Z,10.23
2019-03-31T17:01:25.656Z,11.83
2019-03-31T17:03:54.051Z,9.53
2019-03-31T17:06:22.511Z,9.60
2019-03-31T17:08:50.968Z,9.37
2019-03-31T17:11:19.352Z,8.93
2019-03-31T17:13:47.734Z,9.60
2019-03-31T17:16:16.115Z,9.73
2019-03-31T17:18:44.511Z,8.40
2019-03-31T17:21:12.947Z,8.67
2019-03-31T17:23:41.356Z,7.80
2019-03-31T17:26:09.748Z,8.17
2019-03-31T17:28:38.158Z,7.70
2019-03-31T17:31:06.540Z,8.10
2019-03-31T17:33:34.988Z,7.50
2019-03-31T17:36:03.436Z,8.27
2019-03-31T17:38:31.817Z,8.20
2019-03-31T17:41:00.212Z,8.23
2019-03-31T17:43:28.596Z,7.23
2019-03-31T17:45:57.255Z,7.10
2019-03-31T17:48:25.652Z,7.40
2019-03-31T17:50:54.037Z,6.77
2019-03-31T17:53:22.428Z,7.27
2019-03-31T17:55:50.808Z,7.30
2019-03-31T17:58:19.196Z,9.87
2019-03-31T18:00:47.588Z,7.10
2019-03-31T18:03:15.970Z,7.37
2019-03-31T18:05:44.348Z,6.30
2019-03-31T18:08:12.740Z,5.57
2019-03-31T18:10:41.135Z,5.70
2019-03-31T18:13:09.518Z,5.93
2019-03-31T18:15:37.893Z,5.50
2019-03-31T18:18:06.284Z,5.53
2019-03-31T18:20:34.681Z,4.97
2019-03-31T18:23:03.053Z,5.83
2019-03-31T18:25:31.432Z,5.23
2019-03-31T18:27:59.808Z,5.37
2019-03-31T18:30:28.187Z,5.43
2019-03-31T18:32:56.576Z,5.13
2019-03-31T18:35:24.947Z,4.53
2019-03-31T18:37:53.328Z,4.87
2019-03-31T18:40:34.296Z,4.70
2019-03-31T18:42:51.829Z,4.73
2019-03-31T18:45:20.200Z,4.37
2019-03-31T18:47:48.572Z,5.33
2019-03-31T18:50:16.960Z,5.13
2019-03-31T18:52:45.343Z,5.30
2019-03-31T18:55:15.448Z,4.80
2019-03-31T18:57:51.460Z,5.23
2019-03-31T19:00:24.499Z,5.83
2019-03-31T19:03:13.872Z,5.17
2019-03-31T19:05:43.892Z,5.43
2019-03-31T19:08:25.596Z,6.03
2019-03-31T19:11:04.576Z,5.87
2019-03-31T19:13:34.596Z,6.97
2019-03-31T19:16:10.364Z,6.73
2019-03-31T19:18:52.327Z,6.63
2019-03-31T19:21:28.328Z,7.00
2019-03-31T19:24:05.955Z,7.43
2019-03-31T19:26:47.591Z,7.43
2019-03-31T19:29:24.028Z,7.30
2019-03-31T19:31:56.982Z,7.80
2019-03-31T19:34:27.007Z,8.10
2019-03-31T19:37:03.075Z,8.20
2019-03-31T19:39:49.535Z,8.03
2019-03-31T19:42:22.495Z,8.67
2019-03-31T19:44:52.597Z,7.83
2019-03-31T19:47:28.734Z,9.30
2019-03-31T19:50:01.726Z,8.53
2019-03-31T19:52:34.260Z,8.57
2019-03-31T19:55:10.135Z,15.83
2019-03-31T19:57:49.174Z,18.27
2019-03-31T20:00:37.333Z,20.50
2019-03-31T20:03:16.152Z,32.60
2019-03-31T20:05:46.425Z,34.10
2019-03-31T20:08:22.151Z,37.63
2019-03-31T20:10:58.304Z,44.37
2019-03-31T20:13:28.340Z,42.93
2019-03-31T20:16:07.079Z,35.17
2019-03-31T20:18:39.811Z,27.10
2019-03-31T20:21:09.832Z,21.73
2019-03-31T20:23:42.756Z,15.73
2019-03-31T20:26:12.783Z,14.43
2019-03-31T20:28:42.879Z,10.87
2019-03-31T20:31:29.212Z,9.53
2019-03-31T20:33:59.225Z,9.10
2019-03-31T20:36:29.251Z,8.90
2019-03-31T20:42:18.951Z,8.10
2019-03-31T20:44:47.330Z,7.83
2019-03-31T20:47:15.719Z,7.10
2019-03-31T20:49:44.105Z,7.63
2019-03-31T20:52:12.481Z,8.63
2019-03-31T20:54:40.864Z,7.00
2019-03-31T20:57:09.255Z,7.23
2019-03-31T20:59:37.722Z,6.87
2019-03-31T21:02:06.301Z,6.87
2019-03-31T21:04:34.671Z,7.00
2019-03-31T21:07:03.054Z,7.97
2019-03-31T21:09:44.260Z,7.40
2019-03-31T21:12:01.546Z,5.97
2019-03-31T21:14:29.923Z,6.27
2019-03-31T21:16:58.311Z,6.07
2019-03-31T21:19:26.695Z,6.77
2019-03-31T21:21:55.085Z,6.73
2019-03-31T21:24:23.451Z,7.13
2019-03-31T21:26:51.843Z,6.90
2019-03-31T21:29:20.223Z,7.17
2019-03-31T21:31:48.615Z,6.13
2019-03-31T21:34:16.991Z,5.80
2019-03-31T21:36:45.369Z,5.93
2019-03-31T21:39:13.763Z,5.30
2019-03-31T21:41:42.127Z,5.20
2019-03-31T21:44:10.515Z,5.00
2019-03-31T21:46:38.903Z,4.73
2019-03-31T21:49:07.299Z,4.43
2019-03-31T21:51:35.663Z,4.67
2019-03-31T21:54:04.046Z,4.00
2019-03-31T21:56:32.439Z,4.10
2019-03-31T21:59:00.815Z,3.57
2019-03-31T22:01:29.203Z,4.03
2019-03-31T22:03:57.587Z,3.70
2019-03-31T22:06:26.033Z,3.87
2019-03-31T22:08:54.437Z,3.47
2019-03-31T22:11:22.820Z,3.17
2019-03-31T22:13:51.200Z,3.67
2019-03-31T22:16:19.656Z,3.77
2019-03-31T22:18:48.027Z,3.73
2019-03-31T22:21:16.400Z,3.60
2019-03-31T22:23:57.401Z,3.60
2019-03-31T22:26:14.894Z,3.30
2019-03-31T22:28:43.391Z,3.10
2019-03-31T22:31:11.903Z,2.77
2019-03-31T22:33:40.278Z,3.07
2019-03-31T22:36:20.975Z,3.97
2019-03-31T22:38:50.811Z,3.50
2019-03-31T22:41:19.252Z,3.23
2019-03-31T22:43:49.279Z,3.13
2019-03-31T22:46:18.102Z,3.50
2019-03-31T22:48:46.539Z,3.53
2019-03-31T22:51:14.960Z,3.40
2019-03-31T22:53:43.331Z,3.50
2019-03-31T22:56:11.720Z,3.10
2019-03-31T22:58:40.095Z,3.70
2019-03-31T23:01:08.480Z,3.40
2019-03-31T23:03:36.863Z,3.63
2019-03-31T23:06:05.250Z,3.70
2019-03-31T23:08:33.627Z,3.53
2019-03-31T23:11:02.019Z,2.73
2019-03-31T23:13:30.400Z,3.87
2019-03-31T23:15:58.779Z,4.23
2019-03-31T23:18:27.188Z,3.20
2019-03-31T23:20:55.559Z,3.27
2019-03-31T23:23:23.937Z,3.10
2019-03-31T23:25:52.416Z,3.27
2019-03-31T23:28:20.790Z,3.00
2019-03-31T23:30:49.164Z,2.70
2019-03-31T23:33:17.552Z,2.90
2019-03-31T23:35:45.923Z,2.73
2019-03-31T23:38:14.304Z,2.77
2019-03-31T23:40:42.684Z,3.17
2019-03-31T23:43:11.057Z,2.80
2019-03-31T23:45:39.452Z,3.70
2019-03-31T23:48:07.830Z,3.40
2019-03-31T23:50:36.203Z,2.80
2019-03-31T23:53:04.588Z,3.07
2019-03-31T23:55:32.964Z,2.97
2019-03-31T23:58:01.352Z,3.00
